Time;durP1;ratioP1;P1;durP2;ratioP2;P2;SDS_P1;SDS_P2;PMS_P1;PMS_P2;Temp;Humidity;BMP_temperature;BMP_pressure;BME280_temperature;BME280_humidity;BME280_pressure;Samples;Min_cycle;Max_cycle;Signal;HPM_P1;HPM_P2
2024/03/06 00:01:13;;;;;;;4.07;1.77;;;27.30;58.60;;;;;;5053830;28;20183;-72
2024/03/06 00:03:40;;;;;;;7.00;2.10;;;27.60;57.40;;;;;;5051395;28;20192;-73
2024/03/06 00:06:09;;;;;;;6.13;2.00;;;27.80;56.90;;;;;;5048067;28;20642;-76
2024/03/06 00:08:37;;;;;;;6.67;1.60;;;27.80;56.90;;;;;;5051900;28;20821;-75
2024/03/06 00:11:04;;;;;;;11.77;2.33;;;28.00;56.30;;;;;;5051218;28;20215;-74
2024/03/06 00:13:32;;;;;;;5.87;2.13;;;27.90;55.90;;;;;;5047501;28;20194;-75
2024/03/06 00:15:59;;;;;;;5.63;1.70;;;27.70;57.20;;;;;;5048135;28;20274;-73
2024/03/06 00:18:26;;;;;;;6.70;2.17;;;28.00;56.10;;;;;;5049474;28;20191;-73
2024/03/06 00:20:54;;;;;;;5.57;1.60;;;27.90;55.90;;;;;;5048862;28;20240;-73
2024/03/06 00:23:21;;;;;;;4.87;1.87;;;28.10;55.80;;;;;;5046117;28;20669;-73
2024/03/06 00:25:48;;;;;;;5.37;1.93;;;28.00;55.40;;;;;;5046545;28;20691;-74
2024/03/06 00:28:17;;;;;;;7.43;2.13;;;28.30;55.80;;;;;;5044848;28;20188;-73
2024/03/06 00:30:45;;;;;;;7.43;2.27;;;28.30;55.30;;;;;;5050284;28;20187;-76
2024/03/06 00:33:12;;;;;;;11.07;1.90;;;28.30;56.00;;;;;;5047213;28;20262;-75
2024/03/06 00:35:40;;;;;;;5.03;1.70;;;28.70;55.20;;;;;;5035840;28;20246;-73
2024/03/06 00:38:07;;;;;;;10.07;2.30;;;28.70;54.00;;;;;;5047089;28;20176;-72
2024/03/06 00:40:34;;;;;;;9.67;1.80;;;28.30;54.40;;;;;;5048783;28;20192;-76
2024/03/06 00:43:02;;;;;;;7.00;2.60;;;28.30;54.90;;;;;;5049312;28;20212;-75
2024/03/06 00:45:29;;;;;;;8.87;2.40;;;28.20;56.80;;;;;;5048166;28;20187;-78
2024/03/06 00:47:58;;;;;;;6.83;2.20;;;28.30;56.80;;;;;;5046163;28;20184;-76
2024/03/06 00:50:28;;;;;;;9.03;2.10;;;28.50;56.70;;;;;;5050140;28;20649;-74
2024/03/06 00:52:55;;;;;;;5.00;2.20;;;28.60;55.70;;;;;;5043571;28;20270;-72
2024/03/06 00:55:24;;;;;;;9.37;2.17;;;28.80;54.00;;;;;;5049807;28;20223;-72
2024/03/06 00:57:51;;;;;;;8.80;2.37;;;28.80;53.20;;;;;;5050886;28;20665;-73
2024/03/06 01:00:19;;;;;;;7.80;2.23;;;28.80;54.60;;;;;;5046270;28;20203;-73
2024/03/06 01:02:47;;;;;;;9.87;2.93;;;29.10;54.40;;;;;;5047950;28;20176;-73
2024/03/06 01:05:15;;;;;;;9.97;2.30;;;29.30;54.50;;;;;;5044140;28;20183;-74
2024/03/06 01:07:42;;;;;;;6.73;2.10;;;29.00;53.70;;;;;;5049855;28;20278;-74
2024/03/06 01:10:10;;;;;;;10.17;2.53;;;28.80;55.20;;;;;;5046681;28;20557;-72
2024/03/06 01:12:37;;;;;;;8.23;2.43;;;28.70;56.40;;;;;;5050810;28;20180;-73
2024/03/06 01:15:06;;;;;;;7.10;2.70;;;28.80;56.20;;;;;;5047229;28;20239;-73
2024/03/06 01:17:33;;;;;;;10.07;2.70;;;28.80;57.00;;;;;;5051479;28;20172;-72
2024/03/06 01:20:01;;;;;;;9.13;2.80;;;28.70;56.30;;;;;;5042048;28;20729;-76
2024/03/06 01:22:29;;;;;;;8.17;2.63;;;29.10;56.20;;;;;;5046499;28;20310;-71
2024/03/06 01:24:59;;;;;;;9.17;3.30;;;29.00;55.70;;;;;;5044357;28;20172;-74
2024/03/06 01:27:27;;;;;;;11.70;2.97;;;28.90;56.00;;;;;;5046907;28;20195;-76
2024/03/06 01:29:54;;;;;;;12.93;2.80;;;29.30;55.30;;;;;;5031649;28;20185;-73
2024/03/06 01:32:21;;;;;;;13.93;2.73;;;29.30;55.70;;;;;;5030315;28;20224;-77
2024/03/06 01:34:49;;;;;;;10.20;2.90;;;29.40;55.60;;;;;;5047051;28;20287;-74
2024/03/06 01:37:16;;;;;;;12.93;3.80;;;29.90;54.70;;;;;;5047640;28;20664;-77
2024/03/06 01:39:45;;;;;;;17.60;3.23;;;30.20;54.20;;;;;;5046207;28;20261;-73
2024/03/06 01:42:12;;;;;;;11.87;3.33;;;29.70;54.70;;;;;;5042982;28;20180;-73
2024/03/06 01:44:39;;;;;;;7.53;2.63;;;29.80;55.00;;;;;;5043055;28;20180;-73
2024/03/06 01:47:07;;;;;;;10.80;3.60;;;30.00;54.50;;;;;;5045187;28;20184;-76
2024/03/06 01:49:34;;;;;;;7.67;2.83;;;29.90;54.50;;;;;;5042579;28;21566;-78
2024/03/06 01:52:03;;;;;;;9.47;3.23;;;29.30;55.70;;;;;;5044922;28;20187;-76
2024/03/06 01:54:32;;;;;;;9.67;3.07;;;29.20;56.40;;;;;;5031922;28;20216;-75
2024/03/06 01:57:02;;;;;;;10.27;3.03;;;29.30;56.30;;;;;;5045823;28;20271;-73
2024/03/06 01:59:31;;;;;;;10.37;3.57;;;29.80;55.10;;;;;;5043751;28;20172;-75
2024/03/06 02:02:01;;;;;;;11.27;2.90;;;29.60;55.60;;;;;;5030713;28;20234;-72
2024/03/06 02:04:30;;;;;;;11.07;2.90;;;29.80;55.40;;;;;;5045803;28;20196;-73
2024/03/06 02:06:58;;;;;;;8.77;3.40;;;29.80;55.80;;;;;;5041400;28;20230;-74
2024/03/06 02:09:25;;;;;;;10.70;3.00;;;29.80;55.30;;;;;;5043017;28;20176;-74
2024/03/06 02:11:54;;;;;;;9.10;3.57;;;29.60;55.70;;;;;;5041347;28;20266;-75
2024/03/06 02:14:21;;;;;;;12.83;3.20;;;29.70;55.60;;;;;;5039824;28;20208;-74
2024/03/06 02:16:48;;;;;;;10.50;3.40;;;29.50;56.50;;;;;;5043908;28;20188;-73
2024/03/06 02:19:16;;;;;;;12.17;3.13;;;29.20;56.80;;;;;;5046438;28;20195;-72
2024/03/06 02:21:43;;;;;;;9.77;3.03;;;29.30;56.60;;;;;;5042402;28;20183;-74
2024/03/06 02:24:12;;;;;;;9.80;2.93;;;29.30;57.00;;;;;;5046457;28;20618;-73
2024/03/06 02:26:40;;;;;;;10.07;3.30;;;29.40;56.40;;;;;;5045107;28;20187;-73
2024/03/06 02:29:08;;;;;;;11.03;3.57;;;29.60;56.70;;;;;;5044014;28;20184;-74
2024/03/06 02:31:36;;;;;;;11.90;3.00;;;29.80;56.30;;;;;;4936265;28;3017775;-76
2024/03/06 02:34:08;;;;;;;7.80;2.90;;;30.00;54.80;;;;;;5045301;28;20959;-77
2024/03/06 02:36:36;;;;;;;10.57;3.17;;;30.30;55.00;;;;;;5040579;28;20246;-73
2024/03/06 02:39:08;;;;;;;10.27;3.30;;;30.20;54.60;;;;;;5045646;28;20772;-74
2024/03/06 02:41:38;;;;;;;14.17;3.23;;;29.80;55.70;;;;;;5041593;28;20196;-74
2024/03/06 02:44:07;;;;;;;13.63;3.10;;;29.40;57.00;;;;;;5044753;28;20233;-70
2024/03/06 02:46:34;;;;;;;11.43;3.17;;;29.30;57.30;;;;;;5042158;28;21028;-73
2024/03/06 02:49:01;;;;;;;9.13;2.87;;;29.60;57.10;;;;;;5042536;28;21428;-72
2024/03/06 02:51:29;;;;;;;9.63;2.97;;;30.30;55.30;;;;;;5043889;28;20223;-73
2024/03/06 02:53:56;;;;;;;10.90;3.03;;;29.70;57.10;;;;;;5043345;28;20184;-73
2024/03/06 02:56:23;;;;;;;9.63;3.20;;;29.90;56.50;;;;;;5043950;28;20685;-73
2024/03/06 02:58:51;;;;;;;14.67;3.80;;;30.00;56.20;;;;;;5042239;28;20222;-77
2024/03/06 03:01:18;;;;;;;10.53;3.47;;;30.10;56.20;;;;;;5043051;28;20223;-72
2024/03/06 03:03:47;;;;;;;10.17;3.13;;;29.60;57.00;;;;;;5043033;28;20649;-74
2024/03/06 03:06:15;;;;;;;11.87;2.87;;;29.80;57.20;;;;;;5042163;28;20736;-69
2024/03/06 03:08:42;;;;;;;11.20;3.13;;;29.80;57.00;;;;;;5042976;28;20196;-76
2024/03/06 03:11:12;;;;;;;11.30;3.00;;;29.80;57.20;;;;;;5044279;28;20709;-77
2024/03/06 03:13:40;;;;;;;11.77;2.73;;;30.20;56.10;;;;;;5045751;28;20191;-76
2024/03/06 03:16:17;;;;;;;9.40;2.80;;;30.10;55.70;;;;;;5028567;28;20211;-72
2024/03/06 03:18:45;;;;;;;14.13;3.40;;;29.60;56.10;;;;;;5043259;28;20650;-77
2024/03/06 03:21:15;;;;;;;14.30;3.27;;;29.50;56.80;;;;;;5040961;28;20260;-78
2024/03/06 03:23:43;;;;;;;9.60;3.13;;;29.10;58.60;;;;;;5044373;28;20318;-77
2024/03/06 03:26:13;;;;;;;8.10;2.63;;;29.30;57.40;;;;;;5042335;28;20271;-75
2024/03/06 03:28:40;;;;;;;11.93;2.70;;;29.20;57.80;;;;;;5040077;28;20188;-72
2024/03/06 03:31:11;;;;;;;15.57;3.00;;;29.10;57.50;;;;;;5043471;28;20230;-74
2024/03/06 03:33:42;;;;;;;10.20;3.00;;;28.90;58.70;;;;;;5044670;28;20206;-77
2024/03/06 03:36:10;;;;;;;13.67;3.20;;;29.40;57.40;;;;;;5024449;28;20227;-78
2024/03/06 03:38:42;;;;;;;9.00;2.77;;;28.90;58.20;;;;;;5044339;28;20183;-76
2024/03/06 03:41:10;;;;;;;6.80;2.37;;;29.40;57.00;;;;;;5042292;28;20186;-79
2024/03/06 03:43:37;;;;;;;8.80;2.80;;;29.40;57.00;;;;;;5044698;28;20191;-76
2024/03/06 03:46:06;;;;;;;10.50;2.97;;;29.20;57.30;;;;;;5041528;28;20176;-79
2024/03/06 03:48:36;;;;;;;12.50;2.63;;;29.30;57.90;;;;;;5044615;28;20216;-76
2024/03/06 03:51:07;;;;;;;10.53;2.90;;;29.70;56.40;;;;;;5045728;28;20254;-80
2024/03/06 03:53:35;;;;;;;10.65;2.67;;;30.30;55.20;;;;;;5046086;28;20604;-74
2024/03/06 03:56:03;;;;;;;8.07;2.23;;;30.50;54.20;;;;;;5047785;28;20204;-75
2024/03/06 03:58:30;;;;;;;9.90;2.90;;;30.80;54.70;;;;;;5045395;28;20203;-76
2024/03/06 04:00:57;;;;;;;12.95;2.42;;;30.70;54.90;;;;;;5049096;28;20195;-73
2024/03/06 04:03:25;;;;;;;7.72;2.40;;;30.80;53.50;;;;;;5045393;28;20173;-70
2024/03/06 04:05:52;;;;;;;11.32;2.85;;;29.70;56.40;;;;;;5044453;28;20185;-72
2024/03/06 04:08:19;;;;;;;6.40;2.50;;;29.40;57.60;;;;;;5047617;28;21427;-72
2024/03/06 04:10:47;;;;;;;12.18;3.00;;;29.20;58.60;;;;;;5048962;28;20642;-72
2024/03/06 04:13:17;;;;;;;10.60;3.17;;;29.00;58.80;;;;;;5045048;28;20527;-73
2024/03/06 04:15:44;;;;;;;8.57;2.93;;;29.10;58.70;;;;;;5038733;28;20223;-70
2024/03/06 04:18:12;;;;;;;8.85;2.80;;;29.20;59.10;;;;;;5044310;28;20186;-80
2024/03/06 04:20:39;;;;;;;11.97;2.73;;;29.60;58.00;;;;;;5045118;28;20184;-77
2024/03/06 04:23:07;;;;;;;11.07;2.80;;;30.00;57.50;;;;;;5024576;28;20657;-79
2024/03/06 04:25:34;;;;;;;8.95;2.50;;;30.30;56.40;;;;;;5046148;28;20192;-77
2024/03/06 04:28:02;;;;;;;7.85;2.65;;;30.60;55.30;;;;;;5047677;28;20191;-79
2024/03/06 04:30:29;;;;;;;7.20;2.63;;;30.80;55.40;;;;;;5044039;28;20701;-77
2024/03/06 04:32:57;;;;;;;10.48;3.10;;;31.30;54.00;;;;;;5046210;28;20217;-75
2024/03/06 04:35:24;;;;;;;9.02;2.58;;;31.10;53.50;;;;;;5048227;28;20286;-76
2024/03/06 04:37:51;;;;;;;9.00;2.60;;;30.70;54.60;;;;;;5051204;28;20577;-77
2024/03/06 04:40:22;;;;;;;10.38;2.35;;;30.60;55.30;;;;;;5046644;28;20266;-75
2024/03/06 04:42:49;;;;;;;12.48;3.40;;;30.80;55.20;;;;;;5047141;28;20718;-78
2024/03/06 04:45:18;;;;;;;8.52;3.05;;;31.00;54.00;;;;;;5050291;28;20812;-77
2024/03/06 04:47:45;;;;;;;11.98;2.72;;;30.60;54.80;;;;;;5043054;28;20173;-75
2024/03/06 04:50:17;;;;;;;9.07;2.40;;;31.00;54.00;;;;;;5050053;28;20175;-78
2024/03/06 04:52:44;;;;;;;7.88;2.83;;;31.30;53.20;;;;;;5049875;28;20626;-78
2024/03/06 04:55:12;;;;;;;6.38;2.05;;;30.30;55.20;;;;;;5050488;28;20608;-78
2024/03/06 04:57:43;;;;;;;6.35;2.15;;;30.20;55.50;;;;;;5046740;28;20724;-73
2024/03/06 05:00:12;;;;;;;12.35;2.33;;;29.50;57.50;;;;;;5050404;28;20218;-75
2024/03/06 05:02:41;;;;;;;10.75;3.22;;;29.70;57.90;;;;;;5048336;28;20647;-79
2024/03/06 05:05:09;;;;;;;10.00;2.63;;;29.60;59.70;;;;;;5048710;28;20191;-73
2024/03/06 05:07:36;;;;;;;11.32;2.47;;;30.10;59.10;;;;;;5042840;28;20706;-76
2024/03/06 05:10:07;;;;;;;9.00;2.80;;;30.00;58.30;;;;;;5042768;28;20274;-73
2024/03/06 05:12:35;;;;;;;10.65;3.13;;;30.40;58.00;;;;;;5026842;28;20222;-75
2024/03/06 05:15:03;;;;;;;6.00;2.53;;;30.50;56.90;;;;;;5038363;28;20208;-76
2024/03/06 05:17:30;;;;;;;10.77;2.88;;;30.50;56.10;;;;;;5041584;28;20205;-71
2024/03/06 05:19:57;;;;;;;8.00;2.88;;;30.30;56.80;;;;;;5043675;28;20184;-73
2024/03/06 05:22:26;;;;;;;8.60;3.03;;;30.20;56.90;;;;;;5046689;28;20637;-70
2024/03/06 05:24:54;;;;;;;10.45;2.65;;;30.00;57.50;;;;;;5050468;28;20229;-72
2024/03/06 05:27:22;;;;;;;9.50;3.22;;;30.30;56.50;;;;;;5044538;28;20176;-74
2024/03/06 05:29:49;;;;;;;11.45;3.72;;;30.00;57.00;;;;;;5047342;28;20187;-73
2024/03/06 05:32:17;;;;;;;10.98;3.00;;;30.50;55.70;;;;;;5045239;28;20219;-76
2024/03/06 05:34:44;;;;;;;7.35;2.67;;;30.20;56.40;;;;;;5045958;28;20668;-73
2024/03/06 05:37:13;;;;;;;9.77;3.65;;;30.40;55.90;;;;;;5042630;28;20184;-72
2024/03/06 05:39:42;;;;;;;12.40;3.92;;;30.00;56.90;;;;;;5050736;28;20628;-70
2024/03/06 05:42:09;;;;;;;24.60;5.47;;;30.00;57.40;;;;;;5044349;28;20195;-70
2024/03/06 05:44:37;;;;;;;7.25;3.10;;;29.80;57.90;;;;;;5044795;28;20180;-73
2024/03/06 05:47:05;;;;;;;14.13;3.08;;;29.80;58.00;;;;;;5045748;28;20181;-71
2024/03/06 05:49:32;;;;;;;11.75;3.28;;;29.30;59.40;;;;;;5049318;28;20164;-77
2024/03/06 05:52:02;;;;;;;8.63;3.13;;;29.00;60.80;;;;;;5045143;28;20176;-70
2024/03/06 05:54:33;;;;;;;11.57;3.20;;;28.90;61.80;;;;;;5051262;28;20176;-73
2024/03/06 05:57:00;;;;;;;7.50;2.73;;;28.50;62.40;;;;;;5042129;28;20219;-71
2024/03/06 05:59:28;;;;;;;9.27;2.60;;;28.30;63.80;;;;;;5047753;28;20634;-76
2024/03/06 06:01:56;;;;;;;10.53;2.90;;;28.20;63.70;;;;;;5045841;28;20187;-73
2024/03/06 06:04:23;;;;;;;12.47;2.50;;;27.90;63.80;;;;;;5040121;28;20184;-74
2024/03/06 06:06:51;;;;;;;11.37;2.53;;;27.90;64.70;;;;;;5043041;28;20187;-73
2024/03/06 06:09:23;;;;;;;10.27;2.87;;;27.90;64.30;;;;;;5046409;28;20192;-75
2024/03/06 06:11:51;;;;;;;12.23;3.20;;;27.80;65.00;;;;;;5047380;28;20263;-74
2024/03/06 06:14:18;;;;;;;10.43;2.70;;;27.90;65.00;;;;;;5046230;28;20187;-72
2024/03/06 06:16:45;;;;;;;14.00;3.50;;;27.70;65.70;;;;;;5046891;28;20255;-72
2024/03/06 06:19:13;;;;;;;10.70;2.77;;;27.60;66.50;;;;;;5028527;28;20184;-73
2024/03/06 06:21:40;;;;;;;12.70;3.73;;;27.40;67.00;;;;;;5029641;28;20587;-72
2024/03/06 06:24:08;;;;;;;17.13;3.30;;;27.30;67.50;;;;;;5044072;28;20180;-73
2024/03/06 06:26:35;;;;;;;19.13;4.13;;;27.20;67.50;;;;;;5047210;28;20203;-71
2024/03/06 06:29:02;;;;;;;20.23;4.30;;;27.20;67.90;;;;;;5044447;28;20287;-75
2024/03/06 06:31:30;;;;;;;12.70;4.13;;;27.20;67.60;;;;;;5044215;28;20228;-72
2024/03/06 06:33:57;;;;;;;15.50;3.63;;;27.50;66.90;;;;;;5049481;28;20172;-78
2024/03/06 06:36:24;;;;;;;14.07;3.50;;;27.70;66.10;;;;;;5026478;28;20220;-74
2024/03/06 06:38:53;;;;;;;11.00;2.80;;;27.60;66.40;;;;;;5028717;28;20235;-75
2024/03/06 06:41:21;;;;;;;14.13;2.83;;;27.40;66.70;;;;;;5042304;28;20283;-72
2024/03/06 06:43:51;;;;;;;14.47;3.33;;;27.10;67.30;;;;;;5043388;28;21835;-73
2024/03/06 06:46:18;;;;;;;12.37;2.60;;;27.10;68.20;;;;;;5047059;28;20513;-74
2024/03/06 06:48:47;;;;;;;10.47;3.13;;;27.10;68.10;;;;;;5047451;28;20180;-72
2024/03/06 06:51:23;;;;;;;16.30;2.90;;;27.00;68.40;;;;;;5048672;28;20176;-75
2024/03/06 06:53:50;;;;;;;14.07;2.93;;;26.80;69.00;;;;;;5044182;28;20249;-74
2024/03/06 06:56:17;;;;;;;17.37;3.17;;;26.80;69.10;;;;;;5049434;28;20575;-78
2024/03/06 06:58:46;;;;;;;12.33;2.53;;;26.70;69.00;;;;;;5043466;28;20181;-73
2024/03/06 07:01:16;;;;;;;7.93;2.07;;;26.50;68.60;;;;;;5045333;28;20279;-75
2024/03/06 07:03:44;;;;;;;16.67;3.17;;;26.50;69.10;;;;;;5044615;28;20191;-76
2024/03/06 07:06:11;;;;;;;11.67;3.53;;;26.30;69.60;;;;;;5040159;28;20271;-74
2024/03/06 07:08:39;;;;;;;17.17;3.00;;;26.30;69.50;;;;;;5042989;28;20180;-75
2024/03/06 07:11:07;;;;;;;12.20;3.03;;;26.10;70.30;;;;;;5044967;28;20228;-72
2024/03/06 07:13:34;;;;;;;11.77;4.60;;;26.30;70.60;;;;;;5042414;28;20200;-76
2024/03/06 07:16:04;;;;;;;14.60;2.87;;;26.30;70.40;;;;;;5043023;28;20220;-73
2024/03/06 07:18:31;;;;;;;9.13;2.60;;;26.30;70.60;;;;;;5047549;28;20227;-75
2024/03/06 07:20:59;;;;;;;16.87;3.10;;;26.30;70.90;;;;;;5044692;28;20233;-75
2024/03/06 07:23:26;;;;;;;10.27;2.97;;;26.20;71.30;;;;;;5041791;28;20191;-74
2024/03/06 07:25:53;;;;;;;12.37;2.70;;;26.20;71.50;;;;;;5045042;28;20184;-73
2024/03/06 07:28:21;;;;;;;13.13;2.47;;;26.10;71.70;;;;;;5043218;28;20251;-73
2024/03/06 07:30:48;;;;;;;11.73;3.33;;;26.00;71.70;;;;;;5045249;28;20188;-77
2024/03/06 07:33:16;;;;;;;14.17;3.30;;;25.90;72.30;;;;;;5047128;28;20523;-73
2024/03/06 07:35:44;;;;;;;13.50;3.23;;;25.80;72.50;;;;;;5045080;28;20208;-77
2024/03/06 07:38:12;;;;;;;13.47;3.30;;;25.80;72.60;;;;;;5026166;28;20176;-70
2024/03/06 07:40:39;;;;;;;13.17;3.07;;;25.90;72.80;;;;;;5043514;28;20271;-76
2024/03/06 07:43:07;;;;;;;12.60;2.77;;;25.80;73.10;;;;;;5040446;28;20177;-76
2024/03/06 07:45:34;;;;;;;13.53;3.13;;;25.80;73.00;;;;;;5041499;28;20191;-74
2024/03/06 07:48:02;;;;;;;14.57;3.03;;;25.80;73.80;;;;;;5046634;28;20211;-73
2024/03/06 07:50:29;;;;;;;15.93;3.70;;;25.60;73.90;;;;;;5043372;28;20176;-75
2024/03/06 07:52:57;;;;;;;13.87;2.90;;;25.50;74.20;;;;;;5046260;28;20230;-74
2024/03/06 07:55:25;;;;;;;13.83;4.00;;;25.50;74.60;;;;;;5041744;28;20204;-76
2024/03/06 07:57:52;;;;;;;17.53;3.30;;;25.50;74.70;;;;;;5046420;28;20627;-74
2024/03/06 08:00:20;;;;;;;14.10;3.27;;;25.50;74.60;;;;;;5044240;28;20176;-73
2024/03/06 08:02:50;;;;;;;13.63;3.03;;;25.50;74.70;;;;;;5022808;28;20630;-70
2024/03/06 08:05:18;;;;;;;12.27;2.83;;;25.50;75.00;;;;;;5029393;28;20263;-76
2024/03/06 08:07:46;;;;;;;13.30;2.97;;;25.40;75.30;;;;;;5042588;28;20903;-76
2024/03/06 08:10:14;;;;;;;16.53;3.47;;;25.30;75.80;;;;;;5047817;28;20257;-76
2024/03/06 08:12:42;;;;;;;13.33;3.20;;;25.30;76.00;;;;;;5050536;28;20530;-76
2024/03/06 08:15:12;;;;;;;15.87;3.13;;;25.30;76.30;;;;;;5041415;28;20215;-76
2024/03/06 08:17:43;;;;;;;15.07;3.10;;;25.30;76.80;;;;;;5018554;28;20173;-77
2024/03/06 08:20:11;;;;;;;16.80;3.50;;;25.20;76.80;;;;;;5044172;28;20183;-77
2024/03/06 08:22:41;;;;;;;16.50;3.70;;;25.20;77.10;;;;;;5048034;28;20185;-79
2024/03/06 08:25:12;;;;;;;19.37;4.03;;;25.10;77.30;;;;;;5048545;28;20187;-75
2024/03/06 08:27:43;;;;;;;18.83;3.13;;;25.10;77.50;;;;;;5046441;28;20234;-77
2024/03/06 08:30:11;;;;;;;15.90;3.27;;;25.10;77.90;;;;;;5045776;28;20203;-76
2024/03/06 08:32:39;;;;;;;14.70;3.70;;;25.00;77.80;;;;;;5030848;28;20299;-76
2024/03/06 08:35:13;;;;;;;15.13;3.50;;;24.80;78.30;;;;;;5044948;28;20277;-77
2024/03/06 08:37:41;;;;;;;17.00;3.93;;;24.80;79.10;;;;;;5046833;28;20230;-77
2024/03/06 08:40:15;;;;;;;21.53;4.17;;;24.70;79.50;;;;;;5046500;28;20270;-76
2024/03/06 08:42:59;;;;;;;16.67;4.23;;;24.60;79.70;;;;;;5044150;28;20200;-77
2024/03/06 08:45:26;;;;;;;19.33;4.87;;;24.60;80.00;;;;;;5046040;28;20176;-77
2024/03/06 08:47:54;;;;;;;17.17;4.67;;;24.60;80.40;;;;;;5049855;28;20194;-77
2024/03/06 08:50:21;;;;;;;26.17;4.80;;;24.50;80.60;;;;;;5044741;28;20279;-74
2024/03/06 08:52:48;;;;;;;15.50;4.83;;;24.50;80.70;;;;;;5046620;28;20176;-77
2024/03/06 08:55:16;;;;;;;13.57;4.83;;;24.50;80.70;;;;;;5051090;28;20708;-77
2024/03/06 08:57:43;;;;;;;13.33;5.67;;;24.50;80.70;;;;;;5045430;28;20172;-77
2024/03/06 09:00:11;;;;;;;20.73;5.70;;;24.40;80.90;;;;;;5046996;28;20278;-75
2024/03/06 09:02:40;;;;;;;18.37;6.80;;;24.40;81.20;;;;;;5029020;28;20578;-76
2024/03/06 09:05:12;;;;;;;18.57;7.57;;;24.40;81.00;;;;;;5047276;28;20176;-77
2024/03/06 09:07:43;;;;;;;20.53;7.70;;;24.30;81.10;;;;;;5048977;28;20183;-75
2024/03/06 09:10:11;;;;;;;16.43;6.30;;;24.30;81.30;;;;;;5046165;28;20175;-77
2024/03/06 09:12:38;;;;;;;22.03;7.90;;;24.30;81.10;;;;;;5050715;28;20216;-75
2024/03/06 09:15:08;;;;;;;16.17;7.57;;;24.30;81.20;;;;;;5046613;28;20719;-75
2024/03/06 09:17:36;;;;;;;28.70;8.90;;;24.30;81.20;;;;;;5028658;28;20531;-76
2024/03/06 09:20:09;;;;;;;16.57;8.93;;;24.30;81.00;;;;;;5042456;28;20169;-78
2024/03/06 09:22:41;;;;;;;21.80;8.47;;;24.30;81.00;;;;;;5048580;28;20279;-75
2024/03/06 09:25:09;;;;;;;15.47;8.20;;;24.30;80.90;;;;;;5046134;28;20224;-77
2024/03/06 09:27:36;;;;;;;23.23;7.77;;;24.30;81.00;;;;;;5048494;28;20176;-78
2024/03/06 09:30:04;;;;;;;21.47;8.13;;;24.30;80.90;;;;;;5045508;28;20207;-75
2024/03/06 09:32:31;;;;;;;22.57;7.80;;;24.30;80.90;;;;;;5046200;28;20227;-75
2024/03/06 09:34:59;;;;;;;20.57;8.03;;;24.30;81.00;;;;;;5045102;28;20658;-72
2024/03/06 09:37:27;;;;;;;18.83;7.43;;;24.20;80.80;;;;;;5041821;28;20255;-76
2024/03/06 09:39:56;;;;;;;22.03;7.87;;;24.20;80.80;;;;;;5030366;28;20274;-75
2024/03/06 09:42:23;;;;;;;22.43;9.40;;;24.20;80.80;;;;;;5043698;28;20520;-75
2024/03/06 09:44:51;;;;;;;18.80;7.63;;;24.20;81.00;;;;;;5044443;28;20665;-75
2024/03/06 09:47:26;;;;;;;20.03;7.70;;;24.20;81.00;;;;;;5045936;28;20185;-74
2024/03/06 09:49:54;;;;;;;19.77;8.30;;;24.20;80.90;;;;;;5047385;28;20634;-76
2024/03/06 09:52:27;;;;;;;24.93;8.60;;;24.10;80.90;;;;;;5046506;28;20769;-75
2024/03/06 09:54:58;;;;;;;17.80;8.80;;;24.10;80.90;;;;;;5046715;28;20205;-76
2024/03/06 09:57:25;;;;;;;16.27;8.10;;;24.10;80.80;;;;;;5029679;28;20552;-72
2024/03/06 09:59:53;;;;;;;21.63;8.40;;;24.10;80.80;;;;;;5044562;28;20587;-74
2024/03/06 10:02:37;;;;;;;25.80;7.73;;;24.10;80.70;;;;;;5044833;28;20266;-73
2024/03/06 10:05:05;;;;;;;20.17;8.17;;;24.10;80.90;;;;;;5046962;28;20688;-74
2024/03/06 10:07:33;;;;;;;21.23;8.23;;;24.10;80.70;;;;;;5048299;28;20228;-76
2024/03/06 10:10:00;;;;;;;22.47;7.83;;;24.10;80.80;;;;;;5048206;28;20184;-75
2024/03/06 10:12:30;;;;;;;19.90;9.50;;;24.10;80.80;;;;;;5045101;28;20220;-75
2024/03/06 10:14:57;;;;;;;26.13;8.40;;;24.00;80.90;;;;;;5038081;28;20627;-76
2024/03/06 10:17:27;;;;;;;21.37;8.67;;;24.00;80.90;;;;;;5040990;28;20196;-77
2024/03/06 10:19:54;;;;;;;22.17;8.70;;;24.00;81.00;;;;;;5013804;28;20237;-78
2024/03/06 10:22:24;;;;;;;21.73;8.83;;;24.00;81.10;;;;;;5031034;28;20701;-74
2024/03/06 10:24:56;;;;;;;22.33;8.70;;;24.00;81.10;;;;;;5034412;28;20195;-76
2024/03/06 10:27:23;;;;;;;24.30;8.87;;;24.00;81.20;;;;;;5046604;28;20183;-77
2024/03/06 10:30:02;;;;;;;18.13;8.47;;;24.00;81.10;;;;;;5044454;28;20215;-76
2024/03/06 10:32:31;;;;;;;21.13;9.00;;;24.00;81.40;;;;;;5048328;28;20223;-76
2024/03/06 10:34:58;;;;;;;27.83;9.77;;;23.90;81.60;;;;;;5048197;28;20607;-76
2024/03/06 10:37:26;;;;;;;17.03;8.60;;;23.90;81.70;;;;;;5043854;28;20263;-76
2024/03/06 10:39:57;;;;;;;23.90;8.87;;;23.90;81.90;;;;;;5027132;28;20687;-75
2024/03/06 10:42:27;;;;;;;20.37;8.93;;;23.90;82.00;;;;;;5048093;28;20188;-75
2024/03/06 10:45:00;;;;;;;21.07;8.07;;;23.80;82.10;;;;;;5026645;28;20231;-77
2024/03/06 10:47:29;;;;;;;19.43;8.63;;;23.80;82.10;;;;;;5024868;28;20291;-75
2024/03/06 10:50:00;;;;;;;24.90;9.47;;;23.80;82.20;;;;;;5043262;28;20176;-75
2024/03/06 10:52:29;;;;;;;22.40;8.17;;;23.80;82.40;;;;;;5035398;28;20176;-76
2024/03/06 10:55:00;;;;;;;22.30;9.13;;;23.80;82.30;;;;;;5044438;28;20238;-77
2024/03/06 10:57:30;;;;;;;25.83;9.73;;;23.80;82.40;;;;;;5038798;28;20184;-79
2024/03/06 11:00:01;;;;;;;22.90;9.13;;;23.80;82.40;;;;;;5045107;28;20259;-76
2024/03/06 11:02:35;;;;;;;18.50;9.73;;;23.80;82.50;;;;;;5045101;28;20176;-76
2024/03/06 11:05:09;;;;;;;20.40;9.40;;;23.80;82.60;;;;;;5044201;28;20275;-74
2024/03/06 11:07:37;;;;;;;27.47;10.63;;;23.70;82.80;;;;;;5045986;28;20177;-73
2024/03/06 11:10:05;;;;;;;23.43;9.67;;;23.80;83.10;;;;;;5048326;28;20263;-76
2024/03/06 11:12:35;;;;;;;29.60;10.37;;;23.80;83.10;;;;;;5029869;28;20524;-76
2024/03/06 11:15:16;;;;;;;20.63;9.47;;;23.80;83.30;;;;;;5039790;28;20211;-75
2024/03/06 11:17:44;;;;;;;28.13;9.87;;;23.70;83.40;;;;;;5047825;28;20558;-77
2024/03/06 11:20:18;;;;;;;27.40;11.43;;;23.70;83.50;;;;;;5040113;28;20212;-75
2024/03/06 11:22:58;;;;;;;27.60;10.50;;;23.70;83.60;;;;;;5048559;28;20180;-75
2024/03/06 11:25:54;;;;;;;34.50;11.27;;;23.70;83.70;;;;;;5043877;28;20175;-78
2024/03/06 11:28:30;;;;;;;31.70;11.00;;;23.70;83.70;;;;;;5038888;28;20247;-76
2024/03/06 11:31:04;;;;;;;21.57;11.13;;;23.70;83.70;;;;;;5044618;28;20183;-75
2024/03/06 11:33:41;;;;;;;21.87;11.13;;;23.70;83.80;;;;;;5034899;28;20184;-74
2024/03/06 11:36:25;;;;;;;30.80;10.80;;;23.70;83.90;;;;;;5046536;28;20199;-77
2024/03/06 11:39:06;;;;;;;28.17;11.77;;;23.70;84.00;;;;;;5042032;28;20180;-76
2024/03/06 11:41:48;;;;;;;21.17;10.47;;;23.70;84.10;;;;;;5042891;28;20245;-73
2024/03/06 11:44:24;;;;;;;26.97;11.73;;;23.70;84.20;;;;;;5040423;28;20180;-76
2024/03/06 11:47:12;;;;;;;31.03;12.07;;;23.70;84.40;;;;;;5044459;28;20192;-74
2024/03/06 11:49:40;;;;;;;26.63;11.77;;;23.70;84.30;;;;;;5047725;28;20545;-75
2024/03/06 11:52:09;;;;;;;22.10;11.73;;;23.70;84.60;;;;;;5051509;28;20202;-74
2024/03/06 11:54:37;;;;;;;24.63;12.37;;;23.70;84.70;;;;;;5048304;28;20230;-76
2024/03/06 11:57:06;;;;;;;21.73;13.40;;;23.70;84.70;;;;;;5049572;28;20242;-77
2024/03/06 11:59:38;;;;;;;25.63;13.07;;;23.70;84.90;;;;;;5041712;28;20188;-74
2024/03/06 12:02:06;;;;;;;26.20;13.87;;;23.70;85.00;;;;;;5040117;28;20169;-77
2024/03/06 12:04:38;;;;;;;20.07;13.03;;;23.70;85.10;;;;;;5043223;28;20187;-74
2024/03/06 12:07:06;;;;;;;25.00;14.87;;;23.70;85.20;;;;;;5046299;28;20176;-75
2024/03/06 12:09:40;;;;;;;29.90;15.93;;;23.70;85.40;;;;;;5049650;28;20228;-74
2024/03/06 12:12:08;;;;;;;25.53;15.87;;;23.70;85.50;;;;;;5047267;28;20191;-75
2024/03/06 12:14:38;;;;;;;28.80;16.13;;;23.60;85.60;;;;;;5046264;28;20297;-74
2024/03/06 12:17:07;;;;;;;29.47;15.93;;;23.60;85.80;;;;;;5043348;28;20183;-74
2024/03/06 12:19:36;;;;;;;23.33;17.07;;;23.60;85.90;;;;;;5050719;28;20180;-77
2024/03/06 12:22:08;;;;;;;25.77;17.07;;;23.60;86.00;;;;;;5049840;28;20172;-75
2024/03/06 12:24:36;;;;;;;38.50;15.63;;;23.60;86.10;;;;;;5042242;28;20183;-73
2024/03/06 12:27:05;;;;;;;27.90;17.50;;;23.50;86.20;;;;;;5046657;28;20562;-73
2024/03/06 12:29:33;;;;;;;29.23;16.17;;;23.50;86.30;;;;;;5044058;28;20599;-75
2024/03/06 12:32:02;;;;;;;23.87;17.67;;;23.50;86.30;;;;;;5043214;28;20248;-75
2024/03/06 12:34:33;;;;;;;37.73;18.57;;;23.50;86.50;;;;;;5043958;28;20177;-75
2024/03/06 12:37:13;;;;;;;30.10;17.07;;;23.50;86.60;;;;;;5051509;28;20223;-74
2024/03/06 12:39:40;;;;;;;32.13;20.03;;;23.50;86.70;;;;;;5048275;28;20203;-75
2024/03/06 12:42:07;;;;;;;26.33;18.77;;;23.50;86.70;;;;;;5049053;28;20187;-75
2024/03/06 12:44:35;;;;;;;38.60;17.13;;;23.50;86.70;;;;;;5046688;28;20218;-74
2024/03/06 12:47:02;;;;;;;31.67;19.60;;;23.40;86.80;;;;;;5048005;28;20187;-74